Time;durP1;ratioP1;P1;durP2;ratioP2;P2;SDS_P1;SDS_P2;PMS_P1;PMS_P2;Temp;Humidity;BMP_temperature;BMP_pressure;BME280_temperature;BME280_humidity;BME280_pressure;Samples;Min_cycle;Max_cycle;Signal;HPM_P1;HPM_P2
2022/09/27 00:00:25;;;;;;;4.47;1.10;;;15.00;99.90;;;;;;5051050;28;20043;-66
2022/09/27 00:02:50;;;;;;;4.43;1.00;;;14.80;99.90;;;;;;5046206;28;20120;-65
2022/09/27 00:05:16;;;;;;;6.60;1.02;;;14.50;99.90;;;;;;5029950;28;20150;-66
2022/09/27 00:07:43;;;;;;;8.52;1.70;;;14.90;99.90;;;;;;5034400;28;20115;-66
2022/09/27 00:10:09;;;;;;;5.82;1.40;;;15.10;99.90;;;;;;5039800;28;20059;-66
2022/09/27 00:12:34;;;;;;;3.55;0.98;;;15.10;99.90;;;;;;5049342;28;20405;-66
2022/09/27 00:15:01;;;;;;;4.55;1.48;;;15.10;99.90;;;;;;5049597;28;20048;-66
2022/09/27 00:17:27;;;;;;;3.13;0.88;;;14.80;99.90;;;;;;5046134;28;20072;-65
2022/09/27 00:19:55;;;;;;;6.88;1.20;;;14.50;99.90;;;;;;5049951;28;20479;-66
2022/09/27 00:22:22;;;;;;;3.40;0.70;;;15.00;99.90;;;;;;5033252;28;20086;-66
2022/09/27 00:24:47;;;;;;;3.55;1.00;;;14.90;99.90;;;;;;5049675;28;20099;-66
2022/09/27 00:27:13;;;;;;;7.97;1.33;;;14.70;99.90;;;;;;5048833;28;20040;-67
2022/09/27 00:29:38;;;;;;;5.10;1.00;;;14.90;99.90;;;;;;5053633;28;20099;-65
2022/09/27 00:32:04;;;;;;;5.25;1.15;;;15.20;99.90;;;;;;5055119;28;20092;-66
2022/09/27 00:34:29;;;;;;;3.67;0.75;;;14.90;99.90;;;;;;5053571;28;20384;-66
2022/09/27 00:36:55;;;;;;;3.55;1.25;;;14.80;99.90;;;;;;5055020;28;20419;-66
2022/09/27 00:39:20;;;;;;;9.95;1.27;;;15.20;99.90;;;;;;5052470;28;20040;-66
2022/09/27 00:41:46;;;;;;;7.80;1.20;;;14.80;99.90;;;;;;5052394;28;20037;-65
2022/09/27 00:44:24;;;;;;;6.03;1.30;;;15.10;99.90;;;;;;5052089;28;20045;-66
2022/09/27 00:47:04;;;;;;;4.05;1.25;;;15.30;99.90;;;;;;5052704;28;20041;-66
2022/09/27 00:49:41;;;;;;;7.63;1.50;;;15.30;99.90;;;;;;5038676;28;20048;-66
2022/09/27 00:52:36;;;;;;;9.80;1.42;;;14.80;99.90;;;;;;5034834;28;20049;-67
2022/09/27 00:55:24;;;;;;;7.20;2.15;;;15.00;99.90;;;;;;5034208;28;20053;-66
2022/09/27 00:57:50;;;;;;;10.48;1.70;;;15.00;99.90;;;;;;5036479;28;20538;-66
2022/09/27 01:00:17;;;;;;;2.75;1.00;;;14.60;99.90;;;;;;5054327;28;20036;-65
2022/09/27 01:02:49;;;;;;;5.45;1.30;;;14.00;99.90;;;;;;5054522;28;20083;-65
2022/09/27 01:05:19;;;;;;;5.47;1.25;;;14.10;99.90;;;;;;5054306;28;20049;-66
2022/09/27 01:07:45;;;;;;;11.02;1.58;;;14.10;99.90;;;;;;5054321;28;20033;-65
2022/09/27 01:10:12;;;;;;;7.82;1.75;;;13.80;99.90;;;;;;5051422;28;20060;-66
2022/09/27 01:13:07;;;;;;;10.90;1.58;;;13.90;99.90;;;;;;5050936;28;20037;-66
2022/09/27 01:15:46;;;;;;;7.15;1.23;;;13.90;99.90;;;;;;5052544;28;20045;-66
2022/09/27 01:18:20;;;;;;;8.75;1.10;;;13.70;99.90;;;;;;5052524;28;20502;-66
2022/09/27 01:21:07;;;;;;;2.72;0.90;;;14.30;99.90;;;;;;5054351;28;20062;-65
2022/09/27 01:23:39;;;;;;;7.93;1.30;;;14.20;99.90;;;;;;5053128;28;20057;-65
2022/09/27 01:26:18;;;;;;;9.98;1.35;;;13.80;99.90;;;;;;5052522;28;20048;-66
2022/09/27 01:29:03;;;;;;;8.32;1.20;;;13.80;99.90;;;;;;5044724;28;20044;-66
2022/09/27 01:32:07;;;;;;;15.25;2.65;;;14.30;99.90;;;;;;5042392;28;20478;-66
2022/09/27 01:34:54;;;;;;;7.78;0.98;;;14.40;99.90;;;;;;5036653;28;20053;-66
2022/09/27 01:37:49;;;;;;;10.45;2.28;;;13.70;99.90;;;;;;5051552;28;20067;-66
2022/09/27 01:40:23;;;;;;;6.93;1.30;;;14.30;99.90;;;;;;5032427;28;20084;-66
2022/09/27 01:43:21;;;;;;;14.60;1.33;;;14.10;99.90;;;;;;5046292;28;20120;-66
2022/09/27 01:46:00;;;;;;;2.67;0.80;;;13.70;99.90;;;;;;5031819;28;20057;-66
2022/09/27 01:48:34;;;;;;;5.82;1.30;;;13.80;99.90;;;;;;5051384;28;20139;-66
2022/09/27 01:51:15;;;;;;;5.28;1.25;;;13.80;99.90;;;;;;5051738;28;20114;-66
2022/09/27 01:53:45;;;;;;;8.02;1.20;;;14.30;99.90;;;;;;5052290;28;20045;-66
2022/09/27 01:56:21;;;;;;;6.68;1.08;;;14.10;99.90;;;;;;5051254;28;20537;-66
2022/09/27 01:58:58;;;;;;;9.80;1.17;;;13.80;99.90;;;;;;5047559;28;20506;-66
2022/09/27 02:01:27;;;;;;;3.45;1.08;;;13.40;99.90;;;;;;5032022;28;20048;-67
2022/09/27 02:03:54;;;;;;;5.95;1.50;;;13.90;99.90;;;;;;5036514;28;20049;-66
2022/09/27 02:06:23;;;;;;;4.85;1.10;;;13.80;99.90;;;;;;5051622;28;20051;-66
2022/09/27 02:08:58;;;;;;;9.05;1.83;;;13.40;99.90;;;;;;5051343;28;20055;-66
2022/09/27 02:11:23;;;;;;;8.98;1.50;;;13.40;99.90;;;;;;5051595;28;20124;-66
2022/09/27 02:14:07;;;;;;;8.30;1.30;;;14.10;99.90;;;;;;5051841;28;20133;-68
2022/09/27 02:16:49;;;;;;;6.07;0.98;;;14.00;99.90;;;;;;5050181;28;20483;-67
2022/09/27 02:19:43;;;;;;;8.82;1.20;;;14.10;99.90;;;;;;5045421;28;20037;-68
2022/09/27 02:22:17;;;;;;;5.97;1.23;;;13.50;99.90;;;;;;5051831;28;20098;-67
2022/09/27 02:24:55;;;;;;;10.10;1.25;;;14.00;99.90;;;;;;5051465;28;20481;-67
2022/09/27 02:27:32;;;;;;;14.48;1.55;;;13.40;99.90;;;;;;5049799;28;20049;-68
2022/09/27 02:30:04;;;;;;;12.77;2.22;;;14.20;99.90;;;;;;5051181;28;20059;-68
2022/09/27 02:32:31;;;;;;;11.30;1.85;;;14.50;99.90;;;;;;5049857;28;20045;-68
2022/09/27 02:35:01;;;;;;;17.05;2.75;;;13.80;99.90;;;;;;5031321;28;20041;-67
2022/09/27 02:37:26;;;;;;;8.07;1.33;;;13.60;99.90;;;;;;5033146;28;20084;-67
2022/09/27 02:39:52;;;;;;;11.88;1.38;;;14.60;99.90;;;;;;5051462;28;20450;-67
2022/09/27 02:42:18;;;;;;;9.23;1.60;;;14.60;99.90;;;;;;5052678;28;20522;-67
2022/09/27 02:44:44;;;;;;;7.93;1.40;;;13.90;99.90;;;;;;5051330;28;20044;-67
2022/09/27 02:47:37;;;;;;;8.98;1.35;;;13.70;99.90;;;;;;5043532;28;20504;-68
2022/09/27 02:50:12;;;;;;;12.23;2.53;;;13.90;99.90;;;;;;5034072;28;20045;-67
2022/09/27 02:53:07;;;;;;;9.82;1.42;;;14.10;99.90;;;;;;5032566;28;20442;-67
2022/09/27 02:55:53;;;;;;;6.85;1.55;;;13.60;99.90;;;;;;5041448;28;20037;-67
2022/09/27 02:58:43;;;;;;;3.13;1.20;;;13.90;99.90;;;;;;5040493;28;20395;-67
2022/09/27 03:01:26;;;;;;;6.63;1.30;;;14.30;99.90;;;;;;5050237;28;20041;-67
2022/09/27 03:04:09;;;;;;;9.13;1.38;;;14.30;99.90;;;;;;5049087;28;20041;-67
2022/09/27 03:06:37;;;;;;;6.82;1.10;;;13.70;99.90;;;;;;5049532;28;20056;-67
2022/09/27 03:09:02;;;;;;;3.08;0.80;;;14.30;99.90;;;;;;5049171;28;20186;-67
2022/09/27 03:11:28;;;;;;;5.03;0.93;;;14.30;99.90;;;;;;5050380;28;20131;-67
2022/09/27 03:13:53;;;;;;;5.95;1.23;;;14.10;99.90;;;;;;5050522;28;20041;-67
2022/09/27 03:16:19;;;;;;;7.10;0.93;;;14.00;99.90;;;;;;5050237;28;20045;-66
2022/09/27 03:18:44;;;;;;;4.00;0.75;;;14.00;99.90;;;;;;5048925;28;20041;-66
2022/09/27 03:21:10;;;;;;;2.33;0.88;;;13.60;99.90;;;;;;5050821;28;20041;-66
2022/09/27 03:23:36;;;;;;;4.20;0.70;;;13.60;99.90;;;;;;5050524;28;20124;-66
2022/09/27 03:26:02;;;;;;;2.42;0.90;;;13.60;99.90;;;;;;5050465;28;20103;-67
2022/09/27 03:28:28;;;;;;;2.03;0.93;;;14.10;99.90;;;;;;5030270;28;20441;-66
2022/09/27 03:30:54;;;;;;;6.18;0.93;;;14.20;99.90;;;;;;5037034;28;20041;-66
2022/09/27 03:33:20;;;;;;;4.22;1.40;;;13.80;99.90;;;;;;5037907;28;20040;-66
2022/09/27 03:35:46;;;;;;;8.25;1.15;;;13.60;99.90;;;;;;5039674;28;20942;-67
2022/09/27 03:38:12;;;;;;;7.07;1.20;;;14.30;99.90;;;;;;5030656;28;20084;-66
2022/09/27 03:40:38;;;;;;;4.40;1.05;;;13.90;99.90;;;;;;5042413;28;20072;-66
2022/09/27 03:43:03;;;;;;;7.45;0.93;;;14.10;99.90;;;;;;5047858;28;20497;-66
2022/09/27 03:45:29;;;;;;;3.00;0.77;;;14.40;99.90;;;;;;5050012;28;20069;-66
2022/09/27 03:47:54;;;;;;;4.00;0.75;;;14.30;99.90;;;;;;5051477;28;20056;-66
2022/09/27 03:50:20;;;;;;;3.63;0.88;;;14.10;99.90;;;;;;5050435;28;20037;-66
2022/09/27 03:52:46;;;;;;;6.68;1.27;;;13.50;99.90;;;;;;5050234;28;20037;-67
2022/09/27 03:55:12;;;;;;;5.43;1.38;;;14.00;99.90;;;;;;5033075;28;20402;-67
2022/09/27 03:57:38;;;;;;;14.88;1.58;;;14.00;99.90;;;;;;5049386;28;20094;-66
2022/09/27 04:00:05;;;;;;;9.18;1.27;;;14.20;99.90;;;;;;5046029;28;20042;-66
2022/09/27 04:02:31;;;;;;;5.68;1.13;;;13.50;99.90;;;;;;5038645;28;20483;-66
2022/09/27 04:04:57;;;;;;;9.55;1.27;;;13.50;99.90;;;;;;5047571;28;20052;-66
2022/09/27 04:07:22;;;;;;;10.38;1.38;;;14.10;99.90;;;;;;5041765;28;20033;-66
2022/09/27 04:09:48;;;;;;;4.90;1.13;;;13.50;99.90;;;;;;5034328;28;20076;-66
2022/09/27 04:12:14;;;;;;;9.15;1.10;;;13.30;99.90;;;;;;5040592;28;20053;-66
2022/09/27 04:14:40;;;;;;;8.13;1.23;;;14.30;99.90;;;;;;5037897;28;20136;-66
2022/09/27 04:17:06;;;;;;;8.10;1.00;;;13.70;99.90;;;;;;5037215;28;20167;-67
2022/09/27 04:19:31;;;;;;;7.15;1.25;;;14.10;99.90;;;;;;5049301;28;20066;-66
2022/09/27 04:21:57;;;;;;;4.25;0.90;;;13.90;99.90;;;;;;5046146;28;20029;-67
2022/09/27 04:24:22;;;;;;;4.18;1.10;;;14.20;99.90;;;;;;5041790;28;20029;-66
2022/09/27 04:26:48;;;;;;;5.93;0.68;;;13.70;99.90;;;;;;5032642;28;20034;-66
2022/09/27 04:29:15;;;;;;;6.63;1.00;;;13.50;99.90;;;;;;5037943;28;20307;-66
2022/09/27 04:31:42;;;;;;;5.75;1.25;;;13.60;99.90;;;;;;5039875;28;20036;-66
2022/09/27 04:34:08;;;;;;;5.88;1.10;;;13.60;99.90;;;;;;5048780;28;20033;-66
2022/09/27 04:36:34;;;;;;;4.15;0.93;;;13.50;99.90;;;;;;5039155;28;20054;-67
2022/09/27 04:39:03;;;;;;;4.75;1.20;;;13.50;99.90;;;;;;5040020;28;20124;-65
2022/09/27 04:41:29;;;;;;;6.47;1.52;;;13.80;99.90;;;;;;5040099;28;20038;-66
2022/09/27 04:43:55;;;;;;;4.75;1.10;;;13.50;99.90;;;;;;5035309;28;20505;-66
2022/09/27 04:46:21;;;;;;;5.20;1.20;;;13.60;99.90;;;;;;5043913;28;20053;-66
2022/09/27 04:48:47;;;;;;;6.40;1.08;;;14.30;99.90;;;;;;5047928;28;20041;-67
2022/09/27 04:51:16;;;;;;;10.70;1.23;;;14.00;99.90;;;;;;5049531;28;20187;-66
2022/09/27 04:53:42;;;;;;;5.68;1.20;;;13.60;99.90;;;;;;5033662;28;20049;-66
2022/09/27 04:56:08;;;;;;;10.95;1.35;;;14.10;99.90;;;;;;5041781;28;20051;-68
2022/09/27 04:58:33;;;;;;;3.90;0.80;;;13.50;99.90;;;;;;5040610;28;20124;-66
2022/09/27 05:01:01;;;;;;;8.73;1.30;;;13.50;99.90;;;;;;5042816;28;20040;-67
2022/09/27 05:03:27;;;;;;;3.80;0.90;;;13.40;99.90;;;;;;5039825;28;20132;-67
2022/09/27 05:05:53;;;;;;;7.00;1.10;;;13.70;99.90;;;;;;5023613;28;20550;-66
2022/09/27 05:08:19;;;;;;;2.47;0.80;;;13.90;99.90;;;;;;5042853;28;20061;-65
2022/09/27 05:10:46;;;;;;;8.27;0.93;;;13.50;99.90;;;;;;5034753;28;20077;-65
2022/09/27 05:13:12;;;;;;;4.97;0.85;;;13.80;99.90;;;;;;5039558;28;20041;-65
2022/09/27 05:15:38;;;;;;;4.07;1.15;;;13.30;99.90;;;;;;5037628;28;20056;-66
2022/09/27 05:18:05;;;;;;;8.45;1.10;;;13.30;99.90;;;;;;5043322;28;20033;-67
2022/09/27 05:20:31;;;;;;;6.28;1.17;;;13.30;99.90;;;;;;5039050;28;20120;-67
2022/09/27 05:22:57;;;;;;;5.63;1.00;;;14.00;99.90;;;;;;5041615;28;20151;-66
2022/09/27 05:25:22;;;;;;;9.13;1.02;;;13.30;99.90;;;;;;5050156;28;20127;-66
2022/09/27 05:27:49;;;;;;;6.20;1.58;;;13.40;99.90;;;;;;5042337;28;20122;-66
2022/09/27 05:30:14;;;;;;;6.93;1.20;;;13.40;99.90;;;;;;5052199;28;20051;-66
2022/09/27 05:32:49;;;;;;;15.48;1.40;;;13.80;99.90;;;;;;5049378;28;20048;-66
2022/09/27 05:35:17;;;;;;;5.97;0.93;;;14.00;99.90;;;;;;5037607;28;20454;-66
2022/09/27 05:37:42;;;;;;;5.53;1.00;;;13.80;99.90;;;;;;5032632;28;20052;-66
2022/09/27 05:40:08;;;;;;;5.55;1.00;;;13.20;99.90;;;;;;5032434;28;20037;-66
2022/09/27 05:42:37;;;;;;;9.38;1.38;;;13.20;99.90;;;;;;5032564;28;20041;-66
2022/09/27 05:45:03;;;;;;;10.93;1.33;;;13.30;99.90;;;;;;5023777;28;20136;-66
2022/09/27 05:47:29;;;;;;;5.25;1.30;;;13.70;99.90;;;;;;5052057;28;20080;-66
2022/09/27 05:49:54;;;;;;;4.60;1.20;;;14.60;99.90;;;;;;5040857;28;20373;-67
2022/09/27 05:52:20;;;;;;;3.83;1.02;;;13.50;99.90;;;;;;5032294;28;20491;-66
2022/09/27 05:54:46;;;;;;;5.70;0.90;;;13.50;99.90;;;;;;5040168;28;20072;-66
2022/09/27 05:57:11;;;;;;;4.40;0.90;;;14.10;99.90;;;;;;5052348;28;20041;-66
2022/09/27 05:59:37;;;;;;;6.13;1.02;;;14.10;99.90;;;;;;5052742;28;20039;-66
2022/09/27 06:02:02;;;;;;;5.20;0.90;;;14.20;99.90;;;;;;5051989;28;20037;-66
2022/09/27 06:04:28;;;;;;;8.30;1.10;;;13.50;99.90;;;;;;5049507;28;20044;-66
2022/09/27 06:06:53;;;;;;;7.32;0.98;;;14.10;99.90;;;;;;5052915;28;20032;-66
2022/09/27 06:09:19;;;;;;;9.18;1.30;;;14.30;99.90;;;;;;5053202;28;20114;-67
2022/09/27 06:11:45;;;;;;;4.30;1.40;;;14.30;99.90;;;;;;5053013;28;20052;-66
2022/09/27 06:14:12;;;;;;;11.13;1.30;;;14.30;99.90;;;;;;5050097;28;20052;-65
2022/09/27 06:16:38;;;;;;;4.93;0.90;;;14.50;99.90;;;;;;5047796;28;20046;-65
2022/09/27 06:19:03;;;;;;;5.43;0.80;;;14.60;99.90;;;;;;5045655;28;20040;-65
2022/09/27 06:21:30;;;;;;;6.03;0.80;;;14.50;99.90;;;;;;5041059;28;20033;-65
2022/09/27 06:23:58;;;;;;;4.72;1.20;;;14.00;99.90;;;;;;5036193;28;20041;-65
2022/09/27 06:26:28;;;;;;;1.70;0.70;;;14.30;99.90;;;;;;5037313;28;20453;-64
2022/09/27 06:28:54;;;;;;;4.90;1.15;;;14.80;99.90;;;;;;5049702;28;20040;-64
2022/09/27 06:31:20;;;;;;;4.65;0.90;;;14.50;99.90;;;;;;5043176;28;20040;-65
2022/09/27 06:33:47;;;;;;;5.03;0.80;;;14.80;99.90;;;;;;5044769;28;20391;-65
2022/09/27 06:36:13;;;;;;;4.68;1.08;;;14.50;99.90;;;;;;5036340;28;20041;-64
2022/09/27 06:38:39;;;;;;;10.80;1.40;;;14.50;99.90;;;;;;5033087;28;20030;-65
2022/09/27 06:41:08;;;;;;;9.68;1.65;;;14.60;99.90;;;;;;5051043;28;20431;-67
2022/09/27 06:43:34;;;;;;;10.60;1.67;;;15.10;99.90;;;;;;5050774;28;20033;-65
2022/09/27 06:46:04;;;;;;;9.05;1.70;;;15.10;99.90;;;;;;5048944;28;20126;-66
2022/09/27 06:48:31;;;;;;;11.05;1.58;;;15.10;99.90;;;;;;5051463;28;20068;-66
2022/09/27 06:50:57;;;;;;;8.43;1.30;;;14.90;99.90;;;;;;5034057;28;20061;-67
2022/09/27 06:53:23;;;;;;;9.52;1.63;;;14.80;99.90;;;;;;5032598;28;20079;-67
2022/09/27 06:55:50;;;;;;;10.55;1.42;;;15.30;99.90;;;;;;5031311;28;20103;-67
2022/09/27 07:01:01;;;;;;;10.10;1.70;;;14.40;99.90;;;;;;5033859;28;20180;-66
2022/09/27 07:03:31;;;;;;;8.48;1.73;;;14.30;99.90;;;;;;5035839;28;20120;-66
2022/09/27 07:05:58;;;;;;;8.13;1.70;;;14.30;99.90;;;;;;5030957;28;20041;-66
2022/09/27 07:08:27;;;;;;;7.53;2.05;;;16.90;99.90;;;;;;5031163;28;20081;-66
2022/09/27 07:10:54;;;;;;;7.88;1.25;;;14.10;99.90;;;;;;5046022;28;20053;-66
2022/09/27 07:13:20;;;;;;;7.32;1.30;;;14.10;99.90;;;;;;5050955;28;20057;-66
2022/09/27 07:15:45;;;;;;;5.85;1.20;;;14.10;99.90;;;;;;5051897;28;20048;-66
2022/09/27 07:18:11;;;;;;;8.55;1.30;;;14.70;99.90;;;;;;5047029;28;20406;-66
2022/09/27 07:20:37;;;;;;;7.18;1.65;;;14.10;99.90;;;;;;5036915;28;20045;-66
2022/09/27 07:23:04;;;;;;;12.10;1.67;;;14.50;99.90;;;;;;5040089;28;20040;-66
2022/09/27 07:25:30;;;;;;;9.95;1.17;;;14.30;99.90;;;;;;5035626;28;20049;-67
2022/09/27 07:28:04;;;;;;;7.50;1.17;;;14.60;99.90;;;;;;5014142;28;20103;-66
2022/09/27 07:30:31;;;;;;;4.80;1.25;;;14.60;99.90;;;;;;5043469;28;20379;-66
2022/09/27 07:32:58;;;;;;;9.60;1.88;;;14.60;99.90;;;;;;5047712;28;20068;-66
2022/09/27 07:35:24;;;;;;;12.40;2.00;;;14.10;99.90;;;;;;5050568;28;20462;-66
2022/09/27 07:37:50;;;;;;;13.05;1.63;;;14.60;99.90;;;;;;5051630;28;20124;-66
2022/09/27 07:40:16;;;;;;;11.10;1.90;;;14.60;99.90;;;;;;5040035;28;20037;-66
2022/09/27 07:42:41;;;;;;;7.78;1.73;;;14.50;99.90;;;;;;5049645;28;20052;-67
2022/09/27 07:45:08;;;;;;;8.25;1.33;;;14.20;99.90;;;;;;5042359;28;20041;-66
2022/09/27 07:47:36;;;;;;;13.32;1.38;;;14.40;99.90;;;;;;5042883;28;20033;-66
2022/09/27 07:50:02;;;;;;;7.55;1.23;;;14.80;99.90;;;;;;5032082;28;20510;-66
2022/09/27 07:52:28;;;;;;;9.70;1.63;;;14.80;99.90;;;;;;5034067;28;20051;-66
2022/09/27 07:54:53;;;;;;;7.10;1.60;;;14.80;99.90;;;;;;5047104;28;20041;-66
2022/09/27 07:57:21;;;;;;;11.52;1.58;;;14.10;99.90;;;;;;5031346;28;20041;-66
2022/09/27 07:59:47;;;;;;;11.77;1.45;;;14.30;99.90;;;;;;5036374;28;20065;-68
2022/09/27 08:02:15;;;;;;;6.13;1.33;;;14.90;99.90;;;;;;5049108;28;20068;-62
2022/09/27 08:04:46;;;;;;;13.50;1.60;;;14.80;99.90;;;;;;5041997;28;20116;-63
2022/09/27 08:07:12;;;;;;;5.30;1.10;;;14.00;99.90;;;;;;5046631;28;20052;-66
2022/09/27 08:09:37;;;;;;;4.20;1.00;;;13.60;99.90;;;;;;5036907;28;20041;-66
2022/09/27 08:12:03;;;;;;;11.48;1.73;;;12.60;99.90;;;;;;5031526;28;20045;-67
2022/09/27 08:14:29;;;;;;;12.30;2.03;;;13.60;99.90;;;;;;5029823;28;20045;-67
2022/09/27 08:16:55;;;;;;;10.55;2.13;;;13.20;99.90;;;;;;5034204;28;20103;-66
2022/09/27 08:19:21;;;;;;;4.80;1.20;;;13.60;99.90;;;;;;5037024;28;20045;-67
2022/09/27 08:21:47;;;;;;;19.08;1.90;;;12.60;99.90;;;;;;5031236;28;20038;-66
2022/09/27 08:24:13;;;;;;;10.90;1.48;;;13.70;99.90;;;;;;5039065;28;20039;-67
2022/09/27 08:26:39;;;;;;;9.27;1.25;;;13.70;99.90;;;;;;5035237;28;20399;-66
2022/09/27 08:29:05;;;;;;;10.75;1.23;;;13.10;99.90;;;;;;5049829;28;20041;-67
2022/09/27 08:31:30;;;;;;;8.40;1.30;;;13.30;99.90;;;;;;5045836;28;20080;-68
2022/09/27 08:33:56;;;;;;;4.15;1.10;;;13.20;99.90;;;;;;5036810;28;20060;-68
2022/09/27 08:36:23;;;;;;;6.15;0.75;;;14.00;99.90;;;;;;5037922;28;20045;-68
2022/09/27 08:38:49;;;;;;;5.43;1.08;;;13.40;99.90;;;;;;5049645;28;20106;-67
2022/09/27 08:41:33;;;;;;;4.78;0.65;;;13.60;99.90;;;;;;5049249;28;20095;-67
2022/09/27 08:44:04;;;;;;;5.75;0.70;;;14.40;99.90;;;;;;5049715;28;20557;-67
2022/09/27 08:46:52;;;;;;;10.25;1.00;;;14.60;99.90;;;;;;5050868;28;20517;-67
2022/09/27 08:49:32;;;;;;;6.68;0.85;;;14.90;99.90;;;;;;5051300;28;20033;-68
2022/09/27 08:51:59;;;;;;;9.35;1.55;;;14.90;99.90;;;;;;5046475;28;20499;-67
2022/09/27 08:54:29;;;;;;;6.05;1.50;;;14.10;99.90;;;;;;5034631;28;20529;-67
2022/09/27 08:57:07;;;;;;;3.95;0.90;;;14.70;99.90;;;;;;5034683;28;20495;-67
2022/09/27 08:59:54;;;;;;;10.23;1.67;;;14.30;99.90;;;;;;5033218;28;20041;-67
2022/09/27 09:02:23;;;;;;;;;;;15.10;99.90;;;;;;5018538;28;20076;-67
2022/09/27 09:04:53;;;;;;;12.27;1.60;;;14.20;99.90;;;;;;5052544;28;20007;-67
2022/09/27 09:07:31;;;;;;;5.38;1.05;;;14.70;99.90;;;;;;5054515;28;20041;-67
2022/09/27 09:12:45;;;;;;;5.72;1.48;;;14.20;99.90;;;;;;5053218;28;20079;-68
2022/09/27 09:13:07;;;;;;;30.10;1.52;;;14.30;99.90;;;;;;5041799;28;20046;-66
2022/09/27 09:15:55;;;;;;;8.10;1.52;;;12.90;99.90;;;;;;5033049;28;20077;-68
2022/09/27 09:18:30;;;;;;;6.13;1.42;;;13.80;99.90;;;;;;5040125;28;20050;-67
2022/09/27 09:21:02;;;;;;;13.77;1.90;;;13.70;99.90;;;;;;5053617;28;20350;-68
2022/09/27 09:23:36;;;;;;;10.48;1.52;;;13.20;99.90;;;;;;5038641;28;20046;-68
2022/09/27 09:26:26;;;;;;;9.93;1.50;;;13.80;99.90;;;;;;5035244;28;20451;-69
2022/09/27 09:29:08;;;;;;;7.85;1.65;;;13.10;99.90;;;;;;5046820;28;20076;-68
2022/09/27 09:31:41;;;;;;;11.15;0.90;;;13.20;99.90;;;;;;5050689;28;20040;-69
2022/09/27 09:34:17;;;;;;;4.90;1.33;;;12.80;99.90;;;;;;5041613;28;20046;-67
2022/09/27 09:36:49;;;;;;;7.35;1.13;;;12.70;99.90;;;;;;5034009;28;20073;-68
2022/09/27 09:39:21;;;;;;;9.00;1.13;;;14.00;99.90;;;;;;5038134;28;20041;-67
2022/09/27 09:42:06;;;;;;;6.00;1.10;;;13.10;99.90;;;;;;5037307;28;20063;-67
2022/09/27 09:44:53;;;;;;;6.43;1.00;;;13.20;99.90;;;;;;5033873;28;20475;-68
2022/09/27 09:47:51;;;;;;;7.57;1.13;;;14.30;99.90;;;;;;5041723;28;20040;-67
2022/09/27 09:50:25;;;;;;;14.40;1.42;;;13.30;99.90;;;;;;5050195;28;20041;-68
2022/09/27 09:53:15;;;;;;;5.70;1.30;;;13.40;99.90;;;;;;5047004;28;20034;-67
2022/09/27 09:55:45;;;;;;;8.95;1.92;;;13.70;99.90;;;;;;5053279;28;20494;-68
2022/09/27 09:58:22;;;;;;;7.65;1.50;;;13.60;99.90;;;;;;5051968;28;20025;-68
2022/09/27 10:00:52;;;;;;;5.30;1.05;;;13.90;99.90;;;;;;5052739;28;20033;-67
2022/09/27 10:03:18;;;;;;;10.88;1.00;;;14.20;99.90;;;;;;5052124;28;20075;-67
2022/09/27 10:05:45;;;;;;;4.95;1.50;;;14.80;99.90;;;;;;5051988;28;20045;-68
2022/09/27 10:08:18;;;;;;;2.40;0.80;;;13.80;99.90;;;;;;5051886;28;20045;-67
2022/09/27 10:10:44;;;;;;;9.05;1.30;;;14.60;99.90;;;;;;5051382;28;20093;-68
2022/09/27 10:13:20;;;;;;;2.70;0.80;;;14.10;99.90;;;;;;5048501;28;20482;-68
2022/09/27 10:15:53;;;;;;;3.42;0.77;;;14.40;99.90;;;;;;5052620;28;20080;-68
2022/09/27 10:18:20;;;;;;;5.22;1.20;;;14.90;99.90;;;;;;5045978;28;20048;-68
2022/09/27 10:20:54;;;;;;;5.20;1.20;;;15.00;99.90;;;;;;5031821;28;20095;-68
2022/09/27 10:23:23;;;;;;;4.47;1.10;;;14.50;99.90;;;;;;5032864;28;20092;-67
2022/09/27 10:26:02;;;;;;;8.05;1.10;;;14.70;99.90;;;;;;5031923;28;20076;-67
2022/09/27 10:28:43;;;;;;;3.25;0.90;;;14.90;99.90;;;;;;5046202;28;20449;-67
2022/09/27 10:31:13;;;;;;;3.03;0.90;;;15.60;99.90;;;;;;5033327;28;20053;-67
2022/09/27 10:33:52;;;;;;;3.50;0.88;;;15.70;99.90;;;;;;5040952;28;20503;-67
2022/09/27 10:36:25;;;;;;;3.00;0.80;;;16.00;99.90;;;;;;5052729;28;20044;-67
2022/09/27 10:39:03;;;;;;;5.65;1.00;;;16.00;99.90;;;;;;5052898;28;20033;-68
2022/09/27 10:41:35;;;;;;;3.80;0.85;;;15.70;99.90;;;;;;5051283;28;20052;-67
2022/09/27 10:44:28;;;;;;;8.32;0.80;;;15.30;99.90;;;;;;5049895;28;20076;-67
2022/09/27 10:46:58;;;;;;;7.28;1.20;;;15.00;99.90;;;;;;5051192;28;20052;-67
2022/09/27 10:49:36;;;;;;;8.13;1.38;;;14.50;99.90;;;;;;5051798;28;20370;-67
2022/09/27 10:52:05;;;;;;;3.78;0.70;;;14.50;99.90;;;;;;5051528;28;20155;-67
2022/09/27 10:54:34;;;;;;;4.85;0.70;;;14.60;99.90;;;;;;5052332;28;20041;-67
2022/09/27 10:57:14;;;;;;;2.22;0.70;;;14.40;99.90;;;;;;5050064;28;20403;-67
2022/09/27 10:59:42;;;;;;;0.73;0.47;;;14.70;99.90;;;;;;5051271;28;20044;-67
2022/09/27 11:02:28;;;;;;;5.03;0.52;;;14.60;99.90;;;;;;5052339;28;20064;-67
2022/09/27 11:05:07;;;;;;;4.65;0.90;;;15.10;99.90;;;;;;5045989;28;20111;-67
2022/09/27 11:07:36;;;;;;;6.45;0.95;;;15.20;99.90;;;;;;5051980;28;20131;-67
2022/09/27 11:10:21;;;;;;;3.53;0.95;;;15.10;99.90;;;;;;5049974;28;20057;-67
2022/09/27 11:13:04;;;;;;;5.28;1.02;;;15.30;99.90;;;;;;5048476;28;20052;-67
2022/09/27 11:15:30;;;;;;;8.45;1.30;;;15.40;99.90;;;;;;5042236;28;20124;-66
2022/09/27 11:18:09;;;;;;;8.93;1.23;;;15.30;99.90;;;;;;5046901;28;20041;-71
2022/09/27 11:20:48;;;;;;;10.88;1.10;;;15.90;99.90;;;;;;5039803;28;20045;-67
2022/09/27 11:23:32;;;;;;;2.60;0.85;;;15.90;99.90;;;;;;5041382;28;20041;-68
2022/09/27 11:26:09;;;;;;;7.22;1.30;;;15.70;99.90;;;;;;5030022;28;20529;-68
2022/09/27 11:28:50;;;;;;;3.97;1.02;;;15.90;99.90;;;;;;5037062;28;20045;-68
2022/09/27 11:31:42;;;;;;;8.27;0.88;;;15.60;99.90;;;;;;5033053;28;20048;-66
2022/09/27 11:34:16;;;;;;;5.60;0.90;;;15.70;99.90;;;;;;5040435;28;20111;-66
2022/09/27 11:36:50;;;;;;;3.55;0.80;;;15.80;99.90;;;;;;5046476;28;20123;-68
2022/09/27 11:39:20;;;;;;;3.03;0.75;;;15.70;99.90;;;;;;5050657;28;20041;-67
2022/09/27 11:42:10;;;;;;;2.83;0.98;;;15.50;99.90;;;;;;5050259;28;20041;-67
2022/09/27 11:45:12;;;;;;;1.80;0.65;;;15.40;99.90;;;;;;5045391;28;20557;-66
2022/09/27 11:47:59;;;;;;;4.47;1.00;;;15.50;99.90;;;;;;5031789;28;20053;-67
2022/09/27 11:50:42;;;;;;;5.95;0.93;;;15.60;99.90;;;;;;5041350;28;20094;-65
2022/09/27 11:53:30;;;;;;;3.33;0.85;;;15.50;99.90;;;;;;5051487;28;20044;-65
2022/09/27 11:56:07;;;;;;;4.47;1.02;;;15.40;99.90;;;;;;5029374;28;20127;-66
2022/09/27 11:58:37;;;;;;;5.28;1.10;;;15.80;99.90;;;;;;5050446;28;20521;-66
2022/09/27 12:01:16;;;;;;;6.45;1.30;;;15.40;99.90;;;;;;5032819;28;20041;-65
2022/09/27 12:04:00;;;;;;;8.25;1.20;;;15.70;99.90;;;;;;5041887;28;20037;-66
2022/09/27 12:06:39;;;;;;;7.55;0.80;;;15.60;99.90;;;;;;5030392;28;20200;-65
2022/09/27 12:09:11;;;;;;;4.70;1.40;;;15.10;99.90;;;;;;5031395;28;20120;-66
2022/09/27 12:11:45;;;;;;;12.82;1.73;;;14.50;99.90;;;;;;5031079;28;20049;-66
2022/09/27 12:14:39;;;;;;;12.60;1.70;;;14.30;99.90;;;;;;5030035;28;20037;-66
2022/09/27 12:17:21;;;;;;;8.00;1.40;;;13.20;99.90;;;;;;5034064;28;20076;-67
2022/09/27 12:19:51;;;;;;;6.95;1.20;;;13.20;99.90;;;;;;5049549;28;20048;-67
2022/09/27 12:22:22;;;;;;;10.30;1.60;;;13.20;99.90;;;;;;5049889;28;20055;-67
2022/09/27 12:24:48;;;;;;;4.80;1.05;;;12.90;99.90;;;;;;5037595;28;20049;-67
2022/09/27 12:27:23;;;;;;;10.25;1.65;;;13.90;99.90;;;;;;5054019;28;20595;-67
2022/09/27 12:29:50;;;;;;;7.82;1.45;;;13.80;99.90;;;;;;5054488;28;20068;-67
2022/09/27 12:32:24;;;;;;;21.25;1.75;;;13.70;99.90;;;;;;5053760;28;20077;-67
2022/09/27 12:35:10;;;;;;;4.10;0.95;;;12.80;99.90;;;;;;5049669;28;20044;-67
2022/09/27 12:37:46;;;;;;;6.55;1.45;;;12.50;99.90;;;;;;5051977;28;20430;-67
2022/09/27 12:40:25;;;;;;;4.53;1.08;;;13.70;99.90;;;;;;5039474;28;20487;-67
2022/09/27 12:43:05;;;;;;;9.30;1.00;;;12.80;99.90;;;;;;5035059;28;20112;-66
2022/09/27 12:46:07;;;;;;;9.18;1.38;;;13.60;99.90;;;;;;5033720;28;20089;-67
2022/09/27 12:48:41;;;;;;;8.70;1.23;;;13.90;99.90;;;;;;5047806;28;20124;-67
2022/09/27 12:51:10;;;;;;;5.43;1.08;;;14.50;99.90;;;;;;5038923;28;20545;-66
2022/09/27 12:54:01;;;;;;;6.55;1.33;;;14.40;99.90;;;;;;5047590;28;20502;-67
2022/09/27 12:56:39;;;;;;;3.42;1.10;;;13.40;99.90;;;;;;5050010;28;20486;-67
2022/09/27 12:59:55;;;;;;;6.63;0.90;;;14.80;99.90;;;;;;5041881;28;20144;-66
2022/09/27 13:02:45;;;;;;;5.78;1.13;;;13.70;99.90;;;;;;5044580;28;20065;-66
2022/09/27 13:05:36;;;;;;;7.63;1.27;;;14.90;99.90;;;;;;5054149;28;20041;-66
2022/09/27 13:08:39;;;;;;;9.10;1.20;;;15.10;99.90;;;;;;5040908;28;20081;-66
2022/09/27 13:11:14;;;;;;;7.22;1.33;;;13.90;99.90;;;;;;5042805;28;20591;-66
2022/09/27 13:13:40;;;;;;;7.72;1.35;;;13.90;99.90;;;;;;5054609;28;20102;-66